sensor_id;sensor_type;location;lat;lon;timestamp;P1;durP1;ratioP1;P2;durP2;ratioP2
21270;SDS011;10795;50.796;3.860;2022-08-03T00:01:33;7.88;;;1.40;;
21270;SDS011;10795;50.796;3.860;2022-08-03T00:04:00;5.20;;;1.25;;
21270;SDS011;10795;50.796;3.860;2022-08-03T00:06:26;7.40;;;1.50;;
21270;SDS011;10795;50.796;3.860;2022-08-03T00:08:52;11.00;;;1.40;;
21270;SDS011;10795;50.796;3.860;2022-08-03T00:11:18;9.68;;;1.70;;
21270;SDS011;10795;50.796;3.860;2022-08-03T00:13:44;7.70;;;1.50;;
21270;SDS011;10795;50.796;3.860;2022-08-03T00:16:10;4.70;;;1.17;;
21270;SDS011;10795;50.796;3.860;2022-08-03T00:18:37;6.70;;;1.40;;
21270;SDS011;10795;50.796;3.860;2022-08-03T00:21:03;6.07;;;1.55;;
21270;SDS011;10795;50.796;3.860;2022-08-03T00:23:29;9.93;;;1.92;;
21270;SDS011;10795;50.796;3.860;2022-08-03T00:25:55;7.50;;;1.65;;
21270;SDS011;10795;50.796;3.860;2022-08-03T00:28:21;6.65;;;1.40;;
21270;SDS011;10795;50.796;3.860;2022-08-03T00:30:47;6.15;;;1.40;;
21270;SDS011;10795;50.796;3.860;2022-08-03T00:33:13;5.65;;;1.85;;
21270;SDS011;10795;50.796;3.860;2022-08-03T00:35:40;6.53;;;1.52;;
21270;SDS011;10795;50.796;3.860;2022-08-03T00:38:05;6.57;;;1.58;;
21270;SDS011;10795;50.796;3.860;2022-08-03T00:40:32;7.85;;;1.50;;
21270;SDS011;10795;50.796;3.860;2022-08-03T00:42:58;8.02;;;1.63;;
21270;SDS011;10795;50.796;3.860;2022-08-03T00:45:28;5.80;;;1.13;;
21270;SDS011;10795;50.796;3.860;2022-08-03T00:47:56;8.82;;;1.92;;
21270;SDS011;10795;50.796;3.860;2022-08-03T00:50:23;7.82;;;1.55;;
21270;SDS011;10795;50.796;3.860;2022-08-03T00:52:53;4.25;;;1.30;;
21270;SDS011;10795;50.796;3.860;2022-08-03T00:55:21;5.00;;;1.35;;
21270;SDS011;10795;50.796;3.860;2022-08-03T00:57:47;4.90;;;1.40;;
21270;SDS011;10795;50.796;3.860;2022-08-03T01:00:15;4.10;;;1.10;;
21270;SDS011;10795;50.796;3.860;2022-08-03T01:02:45;6.72;;;1.30;;
21270;SDS011;10795;50.796;3.860;2022-08-03T01:05:10;7.85;;;1.60;;
21270;SDS011;10795;50.796;3.860;2022-08-03T01:11:15;4.57;;;1.38;;
21270;SDS011;10795;50.796;3.860;2022-08-03T01:16:00;7.18;;;1.52;;
21270;SDS011;10795;50.796;3.860;2022-08-03T01:18:38;6.47;;;1.27;;
21270;SDS011;10795;50.796;3.860;2022-08-03T01:21:11;6.68;;;1.67;;
21270;SDS011;10795;50.796;3.860;2022-08-03T01:29:59;5.07;;;1.20;;
21270;SDS011;10795;50.796;3.860;2022-08-03T01:32:33;8.50;;;1.83;;
21270;SDS011;10795;50.796;3.860;2022-08-03T01:35:13;6.47;;;1.45;;
21270;SDS011;10795;50.796;3.860;2022-08-03T01:37:53;10.90;;;1.58;;
21270;SDS011;10795;50.796;3.860;2022-08-03T01:40:23;7.97;;;1.70;;
21270;SDS011;10795;50.796;3.860;2022-08-03T01:42:51;4.05;;;1.50;;
21270;SDS011;10795;50.796;3.860;2022-08-03T01:45:19;5.57;;;1.63;;
21270;SDS011;10795;50.796;3.860;2022-08-03T01:47:46;11.68;;;2.17;;
21270;SDS011;10795;50.796;3.860;2022-08-03T01:50:14;5.60;;;1.60;;
21270;SDS011;10795;50.796;3.860;2022-08-03T01:52:44;9.90;;;2.00;;
21270;SDS011;10795;50.796;3.860;2022-08-03T01:55:11;7.47;;;1.65;;
21270;SDS011;10795;50.796;3.860;2022-08-03T01:57:40;7.28;;;1.83;;
21270;SDS011;10795;50.796;3.860;2022-08-03T02:00:08;7.57;;;2.28;;
21270;SDS011;10795;50.796;3.860;2022-08-03T02:02:37;5.85;;;2.00;;
21270;SDS011;10795;50.796;3.860;2022-08-03T02:05:05;8.23;;;1.95;;
21270;SDS011;10795;50.796;3.860;2022-08-03T02:07:33;7.10;;;1.90;;
21270;SDS011;10795;50.796;3.860;2022-08-03T02:10:00;5.80;;;1.83;;
21270;SDS011;10795;50.796;3.860;2022-08-03T02:12:29;11.70;;;2.03;;
21270;SDS011;10795;50.796;3.860;2022-08-03T02:14:56;4.80;;;1.88;;
21270;SDS011;10795;50.796;3.860;2022-08-03T02:17:24;5.68;;;2.40;;
21270;SDS011;10795;50.796;3.860;2022-08-03T02:19:51;8.73;;;1.77;;
21270;SDS011;10795;50.796;3.860;2022-08-03T02:22:20;7.30;;;2.08;;
21270;SDS011;10795;50.796;3.860;2022-08-03T02:24:48;5.82;;;1.92;;
21270;SDS011;10795;50.796;3.860;2022-08-03T02:27:22;5.97;;;1.88;;
21270;SDS011;10795;50.796;3.860;2022-08-03T02:30:00;5.75;;;1.73;;
21270;SDS011;10795;50.796;3.860;2022-08-03T02:32:30;7.03;;;1.85;;
21270;SDS011;10795;50.796;3.860;2022-08-03T02:35:00;3.92;;;1.52;;
21270;SDS011;10795;50.796;3.860;2022-08-03T02:37:31;8.43;;;1.50;;
21270;SDS011;10795;50.796;3.860;2022-08-03T02:40:02;6.93;;;2.00;;
21270;SDS011;10795;50.796;3.860;2022-08-03T02:42:33;9.27;;;2.20;;
21270;SDS011;10795;50.796;3.860;2022-08-03T02:45:02;5.32;;;1.95;;
21270;SDS011;10795;50.796;3.860;2022-08-03T02:47:31;8.15;;;2.15;;
21270;SDS011;10795;50.796;3.860;2022-08-03T02:50:00;7.70;;;2.20;;
21270;SDS011;10795;50.796;3.860;2022-08-03T02:52:29;8.02;;;2.15;;
21270;SDS011;10795;50.796;3.860;2022-08-03T02:54:58;5.95;;;1.80;;
21270;SDS011;10795;50.796;3.860;2022-08-03T02:57:26;4.35;;;1.90;;
21270;SDS011;10795;50.796;3.860;2022-08-03T02:59:54;6.60;;;2.35;;
21270;SDS011;10795;50.796;3.860;2022-08-03T03:02:21;12.40;;;2.20;;
21270;SDS011;10795;50.796;3.860;2022-08-03T03:04:50;10.27;;;2.50;;
21270;SDS011;10795;50.796;3.860;2022-08-03T03:07:17;7.10;;;2.13;;
21270;SDS011;10795;50.796;3.860;2022-08-03T03:09:43;9.23;;;2.30;;
21270;SDS011;10795;50.796;3.860;2022-08-03T03:12:10;8.50;;;2.55;;
21270;SDS011;10795;50.796;3.860;2022-08-03T03:14:38;6.78;;;2.35;;
21270;SDS011;10795;50.796;3.860;2022-08-03T03:17:08;5.80;;;2.40;;
21270;SDS011;10795;50.796;3.860;2022-08-03T03:19:35;6.78;;;2.50;;
21270;SDS011;10795;50.796;3.860;2022-08-03T03:22:03;7.18;;;2.25;;
21270;SDS011;10795;50.796;3.860;2022-08-03T03:24:31;14.02;;;2.88;;
21270;SDS011;10795;50.796;3.860;2022-08-03T03:26:58;6.10;;;2.50;;
21270;SDS011;10795;50.796;3.860;2022-08-03T03:29:24;9.02;;;3.05;;
21270;SDS011;10795;50.796;3.860;2022-08-03T03:31:51;9.18;;;2.92;;
21270;SDS011;10795;50.796;3.860;2022-08-03T03:34:17;6.15;;;2.40;;
21270;SDS011;10795;50.796;3.860;2022-08-03T03:36:43;6.97;;;2.38;;
21270;SDS011;10795;50.796;3.860;2022-08-03T03:39:09;10.93;;;2.53;;
21270;SDS011;10795;50.796;3.860;2022-08-03T03:41:35;6.80;;;2.17;;
21270;SDS011;10795;50.796;3.860;2022-08-03T03:44:01;10.10;;;2.45;;
21270;SDS011;10795;50.796;3.860;2022-08-03T03:46:27;7.32;;;2.47;;
21270;SDS011;10795;50.796;3.860;2022-08-03T03:48:53;8.00;;;2.45;;
21270;SDS011;10795;50.796;3.860;2022-08-03T03:51:18;5.03;;;2.53;;
21270;SDS011;10795;50.796;3.860;2022-08-03T03:53:57;9.52;;;2.42;;
21270;SDS011;10795;50.796;3.860;2022-08-03T03:56:24;6.70;;;2.53;;
21270;SDS011;10795;50.796;3.860;2022-08-03T03:58:50;6.70;;;2.35;;
21270;SDS011;10795;50.796;3.860;2022-08-03T04:01:16;6.55;;;2.60;;
21270;SDS011;10795;50.796;3.860;2022-08-03T04:03:42;5.03;;;2.40;;
21270;SDS011;10795;50.796;3.860;2022-08-03T04:06:08;6.63;;;2.75;;
21270;SDS011;10795;50.796;3.860;2022-08-03T04:08:52;10.68;;;2.67;;
21270;SDS011;10795;50.796;3.860;2022-08-03T04:11:38;7.15;;;2.60;;
21270;SDS011;10795;50.796;3.860;2022-08-03T04:17:03;7.57;;;2.65;;
21270;SDS011;10795;50.796;3.860;2022-08-03T04:19:33;9.77;;;2.30;;
21270;SDS011;10795;50.796;3.860;2022-08-03T04:22:05;7.70;;;2.60;;
21270;SDS011;10795;50.796;3.860;2022-08-03T04:27:10;5.68;;;2.55;;
21270;SDS011;10795;50.796;3.860;2022-08-03T04:29:39;7.93;;;2.80;;
21270;SDS011;10795;50.796;3.860;2022-08-03T04:32:09;10.85;;;2.78;;
21270;SDS011;10795;50.796;3.860;2022-08-03T04:34:36;8.50;;;2.50;;
21270;SDS011;10795;50.796;3.860;2022-08-03T04:37:03;8.70;;;2.65;;
21270;SDS011;10795;50.796;3.860;2022-08-03T04:39:35;11.05;;;2.88;;
21270;SDS011;10795;50.796;3.860;2022-08-03T04:42:03;8.48;;;2.50;;
21270;SDS011;10795;50.796;3.860;2022-08-03T04:44:34;6.13;;;2.42;;
21270;SDS011;10795;50.796;3.860;2022-08-03T04:47:03;12.88;;;2.58;;
21270;SDS011;10795;50.796;3.860;2022-08-03T04:49:29;10.40;;;2.90;;
21270;SDS011;10795;50.796;3.860;2022-08-03T04:51:55;8.23;;;2.33;;
21270;SDS011;10795;50.796;3.860;2022-08-03T04:54:21;5.00;;;2.00;;
21270;SDS011;10795;50.796;3.860;2022-08-03T04:56:46;8.68;;;2.38;;
21270;SDS011;10795;50.796;3.860;2022-08-03T04:59:12;4.07;;;1.50;;
21270;SDS011;10795;50.796;3.860;2022-08-03T05:01:38;2.42;;;1.05;;
21270;SDS011;10795;50.796;3.860;2022-08-03T05:04:05;3.85;;;2.00;;
21270;SDS011;10795;50.796;3.860;2022-08-03T05:06:31;7.05;;;2.30;;
21270;SDS011;10795;50.796;3.860;2022-08-03T05:08:56;6.63;;;2.47;;
21270;SDS011;10795;50.796;3.860;2022-08-03T05:11:22;9.15;;;2.60;;
21270;SDS011;10795;50.796;3.860;2022-08-03T05:13:48;7.53;;;2.78;;
21270;SDS011;10795;50.796;3.860;2022-08-03T05:16:14;4.05;;;1.75;;
21270;SDS011;10795;50.796;3.860;2022-08-03T05:18:40;8.43;;;2.45;;
21270;SDS011;10795;50.796;3.860;2022-08-03T05:21:07;9.27;;;2.58;;
21270;SDS011;10795;50.796;3.860;2022-08-03T05:23:34;4.38;;;1.08;;
21270;SDS011;10795;50.796;3.860;2022-08-03T05:26:00;5.22;;;1.58;;
21270;SDS011;10795;50.796;3.860;2022-08-03T05:28:26;6.80;;;1.67;;
21270;SDS011;10795;50.796;3.860;2022-08-03T05:30:52;2.05;;;0.90;;
21270;SDS011;10795;50.796;3.860;2022-08-03T05:33:17;6.20;;;1.95;;
21270;SDS011;10795;50.796;3.860;2022-08-03T05:35:43;4.07;;;1.90;;
21270;SDS011;10795;50.796;3.860;2022-08-03T05:38:09;4.70;;;1.10;;
21270;SDS011;10795;50.796;3.860;2022-08-03T05:40:35;8.13;;;2.33;;
21270;SDS011;10795;50.796;3.860;2022-08-03T05:43:01;5.18;;;1.73;;
21270;SDS011;10795;50.796;3.860;2022-08-03T05:45:27;6.60;;;2.30;;
21270;SDS011;10795;50.796;3.860;2022-08-03T05:47:52;3.38;;;1.30;;
21270;SDS011;10795;50.796;3.860;2022-08-03T05:50:18;3.78;;;2.00;;
21270;SDS011;10795;50.796;3.860;2022-08-03T05:52:45;3.60;;;1.23;;
21270;SDS011;10795;50.796;3.860;2022-08-03T05:55:11;10.13;;;2.90;;
21270;SDS011;10795;50.796;3.860;2022-08-03T05:57:38;3.30;;;1.50;;
21270;SDS011;10795;50.796;3.860;2022-08-03T06:00:05;2.80;;;1.23;;
21270;SDS011;10795;50.796;3.860;2022-08-03T06:02:36;10.07;;;2.72;;
21270;SDS011;10795;50.796;3.860;2022-08-03T06:05:03;3.85;;;1.88;;
21270;SDS011;10795;50.796;3.860;2022-08-03T06:07:29;4.07;;;1.50;;
21270;SDS011;10795;50.796;3.860;2022-08-03T06:09:54;12.30;;;2.75;;
21270;SDS011;10795;50.796;3.860;2022-08-03T06:12:20;4.68;;;1.88;;
21270;SDS011;10795;50.796;3.860;2022-08-03T06:14:46;3.03;;;1.13;;
21270;SDS011;10795;50.796;3.860;2022-08-03T06:17:12;6.05;;;1.80;;
21270;SDS011;10795;50.796;3.860;2022-08-03T06:19:38;5.63;;;1.48;;
21270;SDS011;10795;50.796;3.860;2022-08-03T06:22:04;9.65;;;2.42;;
21270;SDS011;10795;50.796;3.860;2022-08-03T06:24:30;8.05;;;2.15;;
21270;SDS011;10795;50.796;3.860;2022-08-03T06:26:57;7.25;;;2.30;;
21270;SDS011;10795;50.796;3.860;2022-08-03T06:29:23;6.10;;;1.50;;
21270;SDS011;10795;50.796;3.860;2022-08-03T06:31:48;4.28;;;1.38;;
21270;SDS011;10795;50.796;3.860;2022-08-03T06:34:14;5.75;;;1.45;;
21270;SDS011;10795;50.796;3.860;2022-08-03T06:36:40;3.75;;;1.40;;
21270;SDS011;10795;50.796;3.860;2022-08-03T06:39:06;7.15;;;1.50;;
21270;SDS011;10795;50.796;3.860;2022-08-03T06:41:32;7.57;;;1.58;;
21270;SDS011;10795;50.796;3.860;2022-08-03T06:43:57;6.13;;;1.58;;
21270;SDS011;10795;50.796;3.860;2022-08-03T06:46:23;12.40;;;2.50;;
21270;SDS011;10795;50.796;3.860;2022-08-03T06:48:49;7.82;;;1.90;;
21270;SDS011;10795;50.796;3.860;2022-08-03T06:51:16;7.95;;;1.42;;
21270;SDS011;10795;50.796;3.860;2022-08-03T06:53:42;4.70;;;1.25;;
21270;SDS011;10795;50.796;3.860;2022-08-03T06:56:08;8.10;;;2.10;;
21270;SDS011;10795;50.796;3.860;2022-08-03T06:58:34;7.75;;;1.60;;
21270;SDS011;10795;50.796;3.860;2022-08-03T07:00:59;3.85;;;1.33;;
21270;SDS011;10795;50.796;3.860;2022-08-03T07:03:25;6.25;;;1.38;;
21270;SDS011;10795;50.796;3.860;2022-08-03T07:05:51;6.00;;;1.27;;
21270;SDS011;10795;50.796;3.860;2022-08-03T07:08:17;5.10;;;1.45;;
21270;SDS011;10795;50.796;3.860;2022-08-03T07:10:43;11.13;;;1.58;;
21270;SDS011;10795;50.796;3.860;2022-08-03T07:13:09;7.40;;;1.92;;
21270;SDS011;10795;50.796;3.860;2022-08-03T07:15:36;5.32;;;0.98;;
21270;SDS011;10795;50.796;3.860;2022-08-03T07:18:02;7.05;;;1.60;;
21270;SDS011;10795;50.796;3.860;2022-08-03T07:20:27;12.10;;;1.70;;
21270;SDS011;10795;50.796;3.860;2022-08-03T07:22:53;7.15;;;1.15;;
21270;SDS011;10795;50.796;3.860;2022-08-03T07:25:19;9.27;;;1.42;;
21270;SDS011;10795;50.796;3.860;2022-08-03T07:27:46;5.40;;;1.20;;
21270;SDS011;10795;50.796;3.860;2022-08-03T07:30:12;4.20;;;0.98;;
21270;SDS011;10795;50.796;3.860;2022-08-03T07:32:38;4.63;;;1.50;;
21270;SDS011;10795;50.796;3.860;2022-08-03T07:35:05;6.22;;;1.50;;
21270;SDS011;10795;50.796;3.860;2022-08-03T07:37:31;4.57;;;1.15;;
21270;SDS011;10795;50.796;3.860;2022-08-03T07:39:57;7.63;;;1.48;;
21270;SDS011;10795;50.796;3.860;2022-08-03T07:42:25;6.32;;;1.58;;
21270;SDS011;10795;50.796;3.860;2022-08-03T07:44:51;8.90;;;1.42;;
21270;SDS011;10795;50.796;3.860;2022-08-03T07:47:18;8.68;;;1.60;;
21270;SDS011;10795;50.796;3.860;2022-08-03T07:49:46;6.45;;;1.20;;
21270;SDS011;10795;50.796;3.860;2022-08-03T07:52:11;6.20;;;1.67;;
21270;SDS011;10795;50.796;3.860;2022-08-03T07:54:55;10.70;;;2.28;;
21270;SDS011;10795;50.796;3.860;2022-08-03T07:57:21;8.73;;;1.42;;
21270;SDS011;10795;50.796;3.860;2022-08-03T07:59:47;7.78;;;1.40;;
21270;SDS011;10795;50.796;3.860;2022-08-03T08:02:13;8.18;;;1.40;;
21270;SDS011;10795;50.796;3.860;2022-08-03T08:04:39;7.40;;;1.48;;
21270;SDS011;10795;50.796;3.860;2022-08-03T08:07:05;5.70;;;1.80;;
21270;SDS011;10795;50.796;3.860;2022-08-03T08:09:31;8.10;;;1.65;;
21270;SDS011;10795;50.796;3.860;2022-08-03T08:11:57;5.25;;;1.42;;
21270;SDS011;10795;50.796;3.860;2022-08-03T08:14:22;3.78;;;1.25;;
21270;SDS011;10795;50.796;3.860;2022-08-03T08:16:48;6.82;;;1.77;;
21270;SDS011;10795;50.796;3.860;2022-08-03T08:19:14;6.70;;;2.03;;
21270;SDS011;10795;50.796;3.860;2022-08-03T08:21:41;4.20;;;1.10;;
21270;SDS011;10795;50.796;3.860;2022-08-03T08:24:07;10.00;;;1.83;;
21270;SDS011;10795;50.796;3.860;2022-08-03T08:26:33;7.32;;;1.75;;
21270;SDS011;10795;50.796;3.860;2022-08-03T08:28:59;4.13;;;1.40;;
21270;SDS011;10795;50.796;3.860;2022-08-03T08:31:25;4.07;;;1.48;;
21270;SDS011;10795;50.796;3.860;2022-08-03T08:33:51;7.22;;;1.90;;
21270;SDS011;10795;50.796;3.860;2022-08-03T08:36:16;7.25;;;1.70;;
21270;SDS011;10795;50.796;3.860;2022-08-03T08:38:42;8.10;;;2.35;;
21270;SDS011;10795;50.796;3.860;2022-08-03T08:41:12;10.35;;;2.13;;
21270;SDS011;10795;50.796;3.860;2022-08-03T08:43:39;6.68;;;1.77;;
21270;SDS011;10795;50.796;3.860;2022-08-03T08:46:06;13.82;;;1.67;;
21270;SDS011;10795;50.796;3.860;2022-08-03T08:48:37;7.20;;;1.35;;
21270;SDS011;10795;50.796;3.860;2022-08-03T08:51:05;9.93;;;1.85;;
21270;SDS011;10795;50.796;3.860;2022-08-03T08:53:33;4.50;;;1.45;;
21270;SDS011;10795;50.796;3.860;2022-08-03T08:56:01;10.85;;;1.73;;
21270;SDS011;10795;50.796;3.860;2022-08-03T08:58:29;2.97;;;1.00;;
21270;SDS011;10795;50.796;3.860;2022-08-03T09:01:01;11.00;;;1.67;;
21270;SDS011;10795;50.796;3.860;2022-08-03T09:03:28;9.30;;;1.67;;
21270;SDS011;10795;50.796;3.860;2022-08-03T09:05:54;6.28;;;1.13;;
21270;SDS011;10795;50.796;3.860;2022-08-03T09:08:20;8.50;;;1.58;;
21270;SDS011;10795;50.796;3.860;2022-08-03T09:10:47;5.38;;;1.23;;
21270;SDS011;10795;50.796;3.860;2022-08-03T09:13:13;4.00;;;1.35;;
21270;SDS011;10795;50.796;3.860;2022-08-03T09:15:38;5.20;;;1.27;;
21270;SDS011;10795;50.796;3.860;2022-08-03T09:18:06;5.28;;;1.50;;
21270;SDS011;10795;50.796;3.860;2022-08-03T09:20:34;6.43;;;1.30;;
21270;SDS011;10795;50.796;3.860;2022-08-03T09:23:02;3.40;;;0.73;;
21270;SDS011;10795;50.796;3.860;2022-08-03T09:25:42;7.70;;;1.10;;
21270;SDS011;10795;50.796;3.860;2022-08-03T09:30:34;7.72;;;1.30;;
21270;SDS011;10795;50.796;3.860;2022-08-03T09:33:01;7.22;;;1.17;;
21270;SDS011;10795;50.796;3.860;2022-08-03T09:35:28;7.32;;;0.80;;
21270;SDS011;10795;50.796;3.860;2022-08-03T09:38:07;6.85;;;1.13;;
21270;SDS011;10795;50.796;3.860;2022-08-03T09:40:34;5.65;;;0.90;;
21270;SDS011;10795;50.796;3.860;2022-08-03T09:43:00;6.05;;;1.20;;
21270;SDS011;10795;50.796;3.860;2022-08-03T09:45:26;3.80;;;1.10;;
21270;SDS011;10795;50.796;3.860;2022-08-03T09:47:54;4.65;;;0.70;;
21270;SDS011;10795;50.796;3.860;2022-08-03T09:50:21;6.88;;;1.10;;
21270;SDS011;10795;50.796;3.860;2022-08-03T09:52:46;8.93;;;1.13;;
21270;SDS011;10795;50.796;3.860;2022-08-03T09:55:15;3.95;;;0.80;;
21270;SDS011;10795;50.796;3.860;2022-08-03T09:57:41;2.80;;;0.80;;
21270;SDS011;10795;50.796;3.860;2022-08-03T10:00:14;4.97;;;0.60;;
21270;SDS011;10795;50.796;3.860;2022-08-03T10:02:41;6.25;;;0.98;;
21270;SDS011;10795;50.796;3.860;2022-08-03T10:05:11;9.10;;;1.40;;
21270;SDS011;10795;50.796;3.860;2022-08-03T10:07:45;4.43;;;1.00;;
21270;SDS011;10795;50.796;3.860;2022-08-03T10:10:13;1.35;;;0.57;;
21270;SDS011;10795;50.796;3.860;2022-08-03T10:12:40;4.15;;;0.80;;
21270;SDS011;10795;50.796;3.860;2022-08-03T10:15:07;5.78;;;0.80;;
21270;SDS011;10795;50.796;3.860;2022-08-03T10:17:34;6.55;;;1.00;;
21270;SDS011;10795;50.796;3.860;2022-08-03T10:20:00;3.53;;;0.80;;
21270;SDS011;10795;50.796;3.860;2022-08-03T10:22:29;3.13;;;0.73;;
21270;SDS011;10795;50.796;3.860;2022-08-03T10:24:58;2.38;;;0.65;;
21270;SDS011;10795;50.796;3.860;2022-08-03T10:27:38;2.00;;;0.60;;
21270;SDS011;10795;50.796;3.860;2022-08-03T10:30:09;3.22;;;0.60;;
21270;SDS011;10795;50.796;3.860;2022-08-03T10:35:21;5.05;;;1.88;;
21270;SDS011;10795;50.796;3.860;2022-08-03T10:40:26;4.07;;;0.77;;
21270;SDS011;10795;50.796;3.860;2022-08-03T10:42:56;2.63;;;0.63;;
21270;SDS011;10795;50.796;3.860;2022-08-03T10:45:27;4.57;;;0.50;;
21270;SDS011;10795;50.796;3.860;2022-08-03T10:47:55;2.80;;;0.73;;
21270;SDS011;10795;50.796;3.860;2022-08-03T10:50:23;2.13;;;0.50;;
21270;SDS011;10795;50.796;3.860;2022-08-03T10:52:54;9.70;;;0.77;;
21270;SDS011;10795;50.796;3.860;2022-08-03T11:01:00;3.65;;;0.68;;
21270;SDS011;10795;50.796;3.860;2022-08-03T11:03:26;7.25;;;1.33;;
21270;SDS011;10795;50.796;3.860;2022-08-03T11:05:52;2.78;;;0.50;;
21270;SDS011;10795;50.796;3.860;2022-08-03T11:08:38;2.30;;;0.80;;
21270;SDS011;10795;50.796;3.860;2022-08-03T11:11:24;5.05;;;0.50;;
21270;SDS011;10795;50.796;3.860;2022-08-03T11:16:22;1.85;;;0.50;;
21270;SDS011;10795;50.796;3.860;2022-08-03T11:27:18;3.47;;;0.50;;
21270;SDS011;10795;50.796;3.860;2022-08-03T11:29:54;3.35;;;0.57;;
21270;SDS011;10795;50.796;3.860;2022-08-03T11:35:10;7.43;;;1.10;;
21270;SDS011;10795;50.796;3.860;2022-08-03T11:40:45;2.78;;;0.60;;
21270;SDS011;10795;50.796;3.860;2022-08-03T11:46:03;5.47;;;0.90;;
21270;SDS011;10795;50.796;3.860;2022-08-03T11:48:34;3.75;;;0.65;;
21270;SDS011;10795;50.796;3.860;2022-08-03T11:51:17;6.00;;;0.95;;
21270;SDS011;10795;50.796;3.860;2022-08-03T11:53:45;2.70;;;0.73;;
21270;SDS011;10795;50.796;3.860;2022-08-03T11:56:11;1.25;;;0.50;;
21270;SDS011;10795;50.796;3.860;2022-08-03T11:58:44;5.97;;;1.15;;
21270;SDS011;10795;50.796;3.860;2022-08-03T12:01:14;2.75;;;0.60;;
21270;SDS011;10795;50.796;3.860;2022-08-03T12:03:43;3.60;;;0.85;;
21270;SDS011;10795;50.796;3.860;2022-08-03T12:06:10;5.22;;;0.90;;
21270;SDS011;10795;50.796;3.860;2022-08-03T12:08:37;0.95;;;0.50;;
21270;SDS011;10795;50.796;3.860;2022-08-03T12:11:05;4.15;;;1.00;;
21270;SDS011;10795;50.796;3.860;2022-08-03T12:13:39;5.07;;;0.90;;
21270;SDS011;10795;50.796;3.860;2022-08-03T12:16:07;4.13;;;0.80;;
21270;SDS011;10795;50.796;3.860;2022-08-03T12:18:33;3.45;;;0.80;;
21270;SDS011;10795;50.796;3.860;2022-08-03T12:21:04;4.30;;;0.85;;
21270;SDS011;10795;50.796;3.860;2022-08-03T12:23:31;1.40;;;0.65;;
21270;SDS011;10795;50.796;3.860;2022-08-03T12:26:05;3.88;;;0.70;;
21270;SDS011;10795;50.796;3.860;2022-08-03T12:28:32;1.23;;;0.57;;
21270;SDS011;10795;50.796;3.860;2022-08-03T12:31:03;10.32;;;0.90;;
21270;SDS011;10795;50.796;3.860;2022-08-03T12:33:31;5.22;;;1.02;;
21270;SDS011;10795;50.796;3.860;2022-08-03T12:36:17;2.50;;;0.70;;
21270;SDS011;10795;50.796;3.860;2022-08-03T12:38:43;2.13;;;0.80;;
21270;SDS011;10795;50.796;3.860;2022-08-03T12:41:26;0.75;;;0.40;;
21270;SDS011;10795;50.796;3.860;2022-08-03T12:43:57;1.83;;;0.63;;
21270;SDS011;10795;50.796;3.860;2022-08-03T12:46:28;4.70;;;0.70;;
21270;SDS011;10795;50.796;3.860;2022-08-03T12:48:57;3.78;;;0.95;;
21270;SDS011;10795;50.796;3.860;2022-08-03T12:54:07;4.57;;;0.85;;
21270;SDS011;10795;50.796;3.860;2022-08-03T12:56:33;4.00;;;0.80;;
21270;SDS011;10795;50.796;3.860;2022-08-03T12:58:59;1.30;;;0.70;;
21270;SDS011;10795;50.796;3.860;2022-08-03T13:01:45;2.97;;;0.85;;
21270;SDS011;10795;50.796;3.860;2022-08-03T13:04:11;3.92;;;0.70;;
21270;SDS011;10795;50.796;3.860;2022-08-03T13:06:37;2.00;;;0.70;;
21270;SDS011;10795;50.796;3.860;2022-08-03T13:09:04;7.38;;;0.88;;
21270;SDS011;10795;50.796;3.860;2022-08-03T13:11:30;3.17;;;0.68;;
21270;SDS011;10795;50.796;3.860;2022-08-03T13:13:56;5.30;;;1.02;;
21270;SDS011;10795;50.796;3.860;2022-08-03T13:16:22;2.78;;;0.95;;
21270;SDS011;10795;50.796;3.860;2022-08-03T13:18:48;4.70;;;0.65;;
21270;SDS011;10795;50.796;3.860;2022-08-03T13:21:16;4.22;;;0.95;;
21270;SDS011;10795;50.796;3.860;2022-08-03T13:23:43;3.70;;;0.60;;
21270;SDS011;10795;50.796;3.860;2022-08-03T13:26:10;6.47;;;0.88;;
21270;SDS011;10795;50.796;3.860;2022-08-03T13:28:36;2.45;;;0.70;;
21270;SDS011;10795;50.796;3.860;2022-08-03T13:31:05;3.03;;;0.80;;
21270;SDS011;10795;50.796;3.860;2022-08-03T13:33:31;1.80;;;0.90;;
21270;SDS011;10795;50.796;3.860;2022-08-03T13:35:57;4.50;;;0.80;;
21270;SDS011;10795;50.796;3.860;2022-08-03T13:38:23;1.08;;;0.50;;
21270;SDS011;10795;50.796;3.860;2022-08-03T13:40:50;2.40;;;0.70;;
21270;SDS011;10795;50.796;3.860;2022-08-03T13:43:17;1.40;;;0.75;;
21270;SDS011;10795;50.796;3.860;2022-08-03T13:45:44;6.40;;;0.70;;
21270;SDS011;10795;50.796;3.860;2022-08-03T13:48:10;5.88;;;0.85;;
21270;SDS011;10795;50.796;3.860;2022-08-03T13:50:36;4.85;;;0.80;;
21270;SDS011;10795;50.796;3.860;2022-08-03T13:53:01;3.13;;;0.80;;
21270;SDS011;10795;50.796;3.860;2022-08-03T13:55:27;5.20;;;0.75;;
21270;SDS011;10795;50.796;3.860;2022-08-03T13:57:53;2.70;;;1.05;;
21270;SDS011;10795;50.796;3.860;2022-08-03T14:00:19;2.85;;;0.90;;
21270;SDS011;10795;50.796;3.860;2022-08-03T14:02:50;2.90;;;0.88;;
21270;SDS011;10795;50.796;3.860;2022-08-03T14:05:16;4.25;;;1.00;;
21270;SDS011;10795;50.796;3.860;2022-08-03T14:07:41;3.42;;;0.80;;
21270;SDS011;10795;50.796;3.860;2022-08-03T14:10:07;2.05;;;0.60;;
21270;SDS011;10795;50.796;3.860;2022-08-03T14:12:33;5.68;;;0.80;;
21270;SDS011;10795;50.796;3.860;2022-08-03T14:14:59;5.80;;;1.05;;
21270;SDS011;10795;50.796;3.860;2022-08-03T14:17:25;4.85;;;0.85;;
21270;SDS011;10795;50.796;3.860;2022-08-03T14:19:50;5.90;;;1.02;;
21270;SDS011;10795;50.796;3.860;2022-08-03T14:22:16;3.20;;;0.65;;
21270;SDS011;10795;50.796;3.860;2022-08-03T14:24:42;2.63;;;0.63;;
21270;SDS011;10795;50.796;3.860;2022-08-03T14:27:08;4.32;;;1.10;;
21270;SDS011;10795;50.796;3.860;2022-08-03T14:29:33;2.83;;;0.70;;
21270;SDS011;10795;50.796;3.860;2022-08-03T14:31:59;1.35;;;0.90;;
21270;SDS011;10795;50.796;3.860;2022-08-03T14:34:25;2.60;;;0.77;;
21270;SDS011;10795;50.796;3.860;2022-08-03T14:36:51;2.75;;;0.80;;
21270;SDS011;10795;50.796;3.860;2022-08-03T14:39:16;5.55;;;0.85;;
21270;SDS011;10795;50.796;3.860;2022-08-03T14:41:42;4.70;;;0.80;;
21270;SDS011;10795;50.796;3.860;2022-08-03T14:44:08;2.03;;;0.68;;
21270;SDS011;10795;50.796;3.860;2022-08-03T14:46:33;1.38;;;0.60;;
21270;SDS011;10795;50.796;3.860;2022-08-03T14:48:59;2.75;;;0.65;;
21270;SDS011;10795;50.796;3.860;2022-08-03T14:51:25;3.67;;;0.90;;
21270;SDS011;10795;50.796;3.860;2022-08-03T14:53:51;2.60;;;0.60;;
21270;SDS011;10795;50.796;3.860;2022-08-03T14:56:17;2.97;;;0.73;;
21270;SDS011;10795;50.796;3.860;2022-08-03T14:58:42;1.33;;;0.70;;
21270;SDS011;10795;50.796;3.860;2022-08-03T15:01:08;2.50;;;0.88;;
21270;SDS011;10795;50.796;3.860;2022-08-03T15:03:34;2.55;;;0.60;;
21270;SDS011;10795;50.796;3.860;2022-08-03T15:06:00;3.97;;;0.80;;
21270;SDS011;10795;50.796;3.860;2022-08-03T15:08:25;2.88;;;0.80;;
21270;SDS011;10795;50.796;3.860;2022-08-03T15:10:52;1.40;;;0.70;;
21270;SDS011;10795;50.796;3.860;2022-08-03T15:13:19;2.72;;;1.00;;
21270;SDS011;10795;50.796;3.860;2022-08-03T15:15:45;3.38;;;0.90;;
21270;SDS011;10795;50.796;3.860;2022-08-03T15:18:12;6.68;;;0.82;;
21270;SDS011;10795;50.796;3.860;2022-08-03T15:20:37;5.80;;;0.98;;
21270;SDS011;10795;50.796;3.860;2022-08-03T15:23:04;3.20;;;0.63;;
21270;SDS011;10795;50.796;3.860;2022-08-03T15:25:30;3.13;;;0.90;;
21270;SDS011;10795;50.796;3.860;2022-08-03T15:27:55;3.40;;;0.77;;
21270;SDS011;10795;50.796;3.860;2022-08-03T15:30:21;3.10;;;0.90;;
21270;SDS011;10795;50.796;3.860;2022-08-03T15:32:47;3.00;;;0.80;;
21270;SDS011;10795;50.796;3.860;2022-08-03T15:35:13;2.10;;;0.88;;
21270;SDS011;10795;50.796;3.860;2022-08-03T15:37:38;0.90;;;0.65;;
21270;SDS011;10795;50.796;3.860;2022-08-03T15:40:05;3.13;;;0.90;;
21270;SDS011;10795;50.796;3.860;2022-08-03T15:42:31;1.15;;;0.57;;